Buoy 46770

sailwx.info

Track history (hours):
 
Tides and Currents Weather Stations Pressure Air Temp Water Temp Dewpoint Dewpoint Depression Visibility Wind Speed Wind Dir Waves Ship Positions

Drifting buoy 46770

Last reported at 2017-Dec-11 16:00 UTC. Time now 2017-Dec-13 18:50 UTC.
Position N 21°31' W 143°38'.

Barometer 1016.6 mb
Water temperature 24.8 ° C

Date/timePositionNaut miles runAvg speedWind from/ knotsBaromVisibWave heightAir tempDewpointWater temp
2017-Dec-11 16:00N 21°31' W 143°38'1 1.1 1016.6 24.8
2017-Dec-11 15:00N 21°31' W 143°39'0 0.0 1016.0 24.8
2017-Dec-11 14:00N 21°31' W 143°39'5 5.2 1015.9 24.8
2017-Dec-11 13:00N 21°30' W 143°44'0 0.0 1016.1 24.8
2017-Dec-11 11:00N 21°30' W 143°44'0 0.0 1016.6 24.8
2017-Dec-11 07:00N 21°30' W 143°44'1 1.1 1017.4 24.9
2017-Dec-11 06:00N 21°30' W 143°46'1 1.1 1016.9 25.0
2017-Dec-11 05:00N 21°30' W 143°47'1 0.6 1016.5 25.0
2017-Dec-11 04:00N 21°30' W 143°47'1 1.1 1015.9 25.0
2017-Dec-11 03:00N 21°30' W 143°49'2 0.9 1015.2 25.1
2017-Dec-11 01:00N 21°29' W 143°50'0 0.0 1014.7 25.3
2017-Dec-11 00:00N 21°29' W 143°50'3 3.0 1014.6 25.3
2017-Dec-10 23:00N 21°28' W 143°53'0 0.0 1014.9 25.2
2017-Dec-10 20:00N 21°28' W 143°53'2 1.6 1017.1 24.9
2017-Dec-10 19:00N 21°27' W 143°55'1 0.6 1017.6 24.8
2017-Dec-10 18:00N 21°28' W 143°55'2 2.1 1017.7 24.7
2017-Dec-10 17:00N 21°26' W 143°56'3 2.5 1017.1 24.7
2017-Dec-10 16:00N 21°25' W 143°59'0 0.0 1016.4 24.7
2017-Dec-10 15:00N 21°25' W 143°59'1 1.1 1015.5 24.7
2017-Dec-10 14:00N 21°25' W 144°00'0 0.0 1015.3 24.6
2017-Dec-10 13:00N 21°25' W 144°00'7 7.3 1015.1 24.7
2017-Dec-10 12:00N 21°22' W 144°07'1 0.2 1015.2 24.7
2017-Dec-10 07:00N 21°23' W 144°08'1 0.8 1016.4 24.7
2017-Dec-10 06:00N 21°22' W 144°08'1 0.6 1016.2 24.8
2017-Dec-10 05:00N 21°22' W 144°09'1 1.2 1015.8 24.8
2017-Dec-10 04:00N 21°21' W 144°09'1 0.6 1015.5 24.8
2017-Dec-10 03:00N 21°21' W 144°10'1 1.2 1014.2 24.8
2017-Dec-10 02:00N 21°20' W 144°10'0 0.0 1013.6 24.9
2017-Dec-10 01:00N 21°20' W 144°10'1 0.8 1013.4 25.0
2017-Dec-10 00:00N 21°19' W 144°10'0 0.0 1013.0 25.0
2017-Dec-09 23:00N 21°19' W 144°10'2 0.6 1013.2 24.9
2017-Dec-09 20:00N 21°17' W 144°10'0 0.0 1015.5 24.8
2017-Dec-09 19:00N 21°17' W 144°10'1 0.6 1016.0 24.8
2017-Dec-09 18:00N 21°17' W 144°10'0 0.0 1015.9 24.8
2017-Dec-09 17:00N 21°17' W 144°10'1 0.6 1015.5 24.7
2017-Dec-09 16:00N 21°16' W 144°10'1 0.6 1015.2 24.7
2017-Dec-09 15:00N 21°16' W 144°10'0 0.0 1015.0 24.7
2017-Dec-09 14:00N 21°16' W 144°10'1 0.8 1015.1 24.7
2017-Dec-09 13:00N 21°15' W 144°10'0 0.0 1015.2 24.7
2017-Dec-09 12:00N 21°15' W 144°10'0 0.0 1015.5 24.7
2017-Dec-09 11:00N 21°15' W 144°10'2 0.6 1016.1 24.8
2017-Dec-09 08:00N 21°13' W 144°10'1 1.2 1017.2 24.8
2017-Dec-09 07:00N 21°14' W 144°10'1 0.6 1017.6 24.8
2017-Dec-09 06:00N 21°14' W 144°10'1 0.6 1017.7 24.8
2017-Dec-09 05:00N 21°13' W 144°10'0 0.0 1017.9 24.8
2017-Dec-09 04:00N 21°13' W 144°10'0 0.0 1017.5 24.8
2017-Dec-09 03:00N 21°13' W 144°10'0 0.0 1016.8 24.8
2017-Dec-09 02:00N 21°13' W 144°10'1 0.8 1016.5 24.9
2017-Dec-09 01:00N 21°13' W 144°11'1 0.8 1016.3 24.9
2017-Dec-09 00:00N 21°12' W 144°11'0 0.0 1015.9 24.9
2017-Dec-08 23:00N 21°12' W 144°11'1 0.3 1015.9 24.9
2017-Dec-08 20:00N 21°11' W 144°11'1 0.8 1017.9 24.8
2017-Dec-08 19:00N 21°11' W 144°11'0 0.0 1018.0 24.8
2017-Dec-08 18:00N 21°11' W 144°11'0 0.0 1018.1 24.8
2017-Dec-08 17:00N 21°11' W 144°11'1 1.3 1017.8 24.8
2017-Dec-08 16:00N 21°10' W 144°12'0 0.0 1017.1 24.8
2017-Dec-08 15:00N 21°10' W 144°12'0 0.0 1016.9 24.8
2017-Dec-08 14:00N 21°10' W 144°12'0 0.0 1016.9 24.8
2017-Dec-08 13:00N 21°10' W 144°12'1 0.6 1016.6 24.8
2017-Dec-08 12:00N 21°10' W 144°13'0 0.0 1016.8 24.8
2017-Dec-08 11:00N 21°10' W 144°13'2 0.6 1017.2 24.8
2017-Dec-08 07:00N 21°07' W 144°13'0 0.0 1018.2 24.8
2017-Dec-08 06:00N 21°07' W 144°13'1 0.6 1018.0 24.8
2017-Dec-08 05:00N 21°07' W 144°13'1 0.6 1017.7 24.9
2017-Dec-08 04:00N 21°06' W 144°13'0 0.0 1017.1 24.9
2017-Dec-08 03:00N 21°06' W 144°13'0 0.0 1016.5 24.9
2017-Dec-08 02:00N 21°06' W 144°13'0 0.0 1016.3 25.0
2017-Dec-08 01:00N 21°06' W 144°13'1 0.4 1016.1 25.0
2017-Dec-07 23:00N 21°05' W 144°14'1 0.2 1016.2 25.0
2017-Dec-07 20:00N 21°05' W 144°14'1 0.8 1017.5 24.8
2017-Dec-07 19:00N 21°04' W 144°13'1 0.6 1017.4 24.8
2017-Dec-07 18:00N 21°04' W 144°14'1 0.8 1017.4 24.8
2017-Dec-07 17:00N 21°04' W 144°14'0 0.0 1017.5 24.8
2017-Dec-07 16:00N 21°04' W 144°14'1 0.8 1016.8 24.8
2017-Dec-07 15:00N 21°04' W 144°14'1 0.8 1016.4 24.8
2017-Dec-07 14:00N 21°04' W 144°14'1 0.6 1016.2 24.8
2017-Dec-07 13:00N 21°04' W 144°15'1 0.6 1015.7 24.8
2017-Dec-07 12:00N 21°04' W 144°16'1 0.3 1015.9 24.8
2017-Dec-07 08:00N 21°04' W 144°17'1 0.6 1017.1 24.8
2017-Dec-07 07:00N 21°03' W 144°17'1 0.6 1017.3 24.8
2017-Dec-07 06:00N 21°02' W 144°17'1 1.1 1017.4 24.8
2017-Dec-07 05:00N 21°02' W 144°18'1 0.6 1017.2 24.8
2017-Dec-07 04:00N 21°02' W 144°18'0 0.0 1016.6 24.8
2017-Dec-07 03:00N 21°02' W 144°18'1 0.6 1015.9 24.9
2017-Dec-07 02:00N 21°02' W 144°19'0 0.0 1014.8 24.9
2017-Dec-07 01:00N 21°02' W 144°19'1 0.6 1013.8 24.9
2017-Dec-07 00:00N 21°02' W 144°19'2 1.7 1014.1 24.9
2017-Dec-06 23:00N 21°02' W 144°20'1 0.3 1014.4 24.9
2017-Dec-06 19:00N 21°04' W 144°21'0 0.0 1015.5 24.7
2017-Dec-06 18:00N 21°04' W 144°21'1 0.8 1015.3 24.7
2017-Dec-06 17:00N 21°03' W 144°22'1 1.1 1014.6 24.7
2017-Dec-06 16:00N 21°03' W 144°23'1 0.6 1013.7 24.7
2017-Dec-06 14:00N 21°03' W 144°24'2 1.8 1012.3 24.6
2017-Dec-06 13:00N 21°04' W 144°26'0 0.0 1012.0 24.6
2017-Dec-06 12:00N 21°04' W 144°26'4 1.1 1012.1 24.6
2017-Dec-06 08:00N 21°02' W 144°30'1 1.1 1013.3 24.6
2017-Dec-06 07:00N 21°02' W 144°31'1 0.6 1013.5 24.6
2017-Dec-06 06:00N 21°01' W 144°31'1 0.8 1012.7 24.6
2017-Dec-06 05:00N 21°01' W 144°32'1 0.8 1012.2 24.6
2017-Dec-06 04:00N 21°00' W 144°32'1 1.1 1011.8 24.7
2017-Dec-06 03:00N 21°00' W 144°34'2 2.3 1010.9 24.7
2017-Dec-06 02:00N 20°59' W 144°36'0 0.0 1010.7 24.7
2017-Dec-06 01:00N 20°59' W 144°36'0 0.0 1010.1 24.8
2017-Dec-06 00:00N 20°59' W 144°36'0 0.0 1010.4 24.8
2017-Dec-05 23:00N 20°59' W 144°36'3 1.0 1010.7 24.8
2017-Dec-05 20:00N 20°59' W 144°39'1 1.1 1012.9 24.5
2017-Dec-05 19:00N 20°59' W 144°40'1 0.8 1013.0 24.5
2017-Dec-05 18:00N 20°58' W 144°41'0 0.0 1012.6 24.5
2017-Dec-05 17:00N 20°58' W 144°41'1 0.6 1012.4 24.5
2017-Dec-05 16:00N 20°58' W 144°41'1 1.1 1012.0 24.5
2017-Dec-05 15:00N 20°58' W 144°43'1 0.6 1011.3 24.5
2017-Dec-05 14:00N 20°58' W 144°43'0 0.0 1010.8 24.5
2017-Dec-05 13:00N 20°58' W 144°43'0 0.0 1010.9 24.5
2017-Dec-05 12:00N 20°58' W 144°43'2 0.4 1011.3 24.5
2017-Dec-05 07:00N 20°58' W 144°45'1 1.1 1012.8 24.6
2017-Dec-05 06:00N 20°58' W 144°46'0 0.0 1012.8 24.6
2017-Dec-05 05:00N 20°58' W 144°46'0 0.0 1012.2 24.6
2017-Dec-05 04:00N 20°58' W 144°46'1 0.6 1011.6 24.7
2017-Dec-05 03:00N 20°58' W 144°47'1 0.6 1011.2 24.8
2017-Dec-05 02:00N 20°58' W 144°47'1 0.6 1011.1 24.9
2017-Dec-05 01:00N 20°58' W 144°47'0 0.0 1011.0 24.9
2017-Dec-05 00:00N 20°58' W 144°47'0 0.0 1010.8 24.9
2017-Dec-04 23:00N 20°58' W 144°47'3 0.8 1011.3 24.8
2017-Dec-04 20:00N 20°59' W 144°50'0 0.0 1013.5 24.5
2017-Dec-04 19:00N 20°59' W 144°50'1 0.6 1013.4 24.4
2017-Dec-04 18:00N 20°59' W 144°50'1 0.8 1013.3 24.4
2017-Dec-04 17:00N 20°59' W 144°51'0 0.0 1012.9 24.4
2017-Dec-04 16:00N 20°59' W 144°51'0 0.0 1012.6 24.4
2017-Dec-04 15:00N 20°59' W 144°51'1 0.6 1012.5 24.4
2017-Dec-04 14:00N 20°59' W 144°51'1 1.1 1011.8 24.4
2017-Dec-04 13:00N 20°59' W 144°52'0 0.0 1012.0 24.4
2017-Dec-04 12:00N 20°59' W 144°52'2 0.6 1012.4 24.4
2017-Dec-04 08:00N 21°01' W 144°54'1 0.8 1014.0 24.4
2017-Dec-04 07:00N 21°02' W 144°53'1 1.3 1014.0 24.3
2017-Dec-04 06:00N 21°03' W 144°54'1 0.6 1013.8 24.4
2017-Dec-04 05:00N 21°03' W 144°53'1 1.3 1013.6 24.4
2017-Dec-04 04:00N 21°04' W 144°54'1 1.3 1013.0 24.4
2017-Dec-04 03:00N 21°05' W 144°55'0 0.0 1012.6 24.4
2017-Dec-04 02:00N 21°05' W 144°55'0 0.0 1012.5 24.4
2017-Dec-04 01:00N 21°05' W 144°55'0 0.0 1012.5 24.4
2017-Dec-04 00:00N 21°05' W 144°55'2 0.6 1012.5 24.4
2017-Dec-03 20:00N 21°08' W 144°55'2 1.9 1015.1 24.4
2017-Dec-03 19:00N 21°10' W 144°54'0 0.0 1015.6 24.4
2017-Dec-03 18:00N 21°10' W 144°54'2 1.9 1015.3 24.4
2017-Dec-03 17:00N 21°11' W 144°53'8 8.5 1014.8 24.3
2017-Dec-03 16:00N 21°20' W 144°52'0 0.0 1014.3 24.3
2017-Dec-03 15:00N 21°20' W 144°52'0 0.0 1013.6 24.3
2017-Dec-03 14:00N 21°20' W 144°52'0 0.0 1013.2 24.3
2017-Dec-03 13:00N 21°20' W 144°52'0 0.0 1013.0 24.2
2017-Dec-03 07:00N 21°20' W 144°52'2 1.9 1015.0 24.1
2017-Dec-03 06:00N 21°22' W 144°52'1 1.2 1014.4 24.1
2017-Dec-03 05:00N 21°23' W 144°52'1 0.8 1013.9 24.1
2017-Dec-03 04:00N 21°23' W 144°52'2 2.5 1013.6 24.1
2017-Dec-03 03:00N 21°26' W 144°52'0 0.0 1012.8 24.1
2017-Dec-03 02:00N 21°26' W 144°52'0 0.0 1012.7 24.1
2017-Dec-03 00:00N 21°26' W 144°52'3 0.8 1012.5 24.2
2017-Dec-02 20:00N 21°29' W 144°51'0 0.0 1015.6 24.1
2017-Dec-02 19:00N 21°29' W 144°51'1 0.8 1016.1 24.1
2017-Dec-02 18:00N 21°29' W 144°50'1 0.8 1016.0 24.0
2017-Dec-02 17:00N 21°30' W 144°51'0 0.0 1015.5 24.0
2017-Dec-02 16:00N 21°30' W 144°51'1 1.3 1015.1 24.0
2017-Dec-02 15:00N 21°31' W 144°50'0 0.0
2017-Dec-02 14:00N 21°31' W 144°50'2 1.8 1014.6 24.0
2017-Dec-02 13:00N 21°32' W 144°50'1 0.7 1014.7 24.0
2017-Dec-02 11:00N 21°34' W 144°49'0 0.0 1015.7 24.0
2017-Dec-02 08:00N 21°34' W 144°49'1 0.6 1017.5 23.8
2017-Dec-02 07:00N 21°34' W 144°49'1 1.3 1017.7 23.7
2017-Dec-02 06:00N 21°35' W 144°49'1 0.6 1017.5 23.8
2017-Dec-02 05:00N 21°36' W 144°49'1 1.3 1017.1 23.9
2017-Dec-02 04:00N 21°37' W 144°47'0 0.0 1016.5 23.9
2017-Dec-02 03:00N 21°37' W 144°47'0 0.0 1015.9 24.0
2017-Dec-02 02:00N 21°37' W 144°47'1 0.6 1015.7 24.0
2017-Dec-02 01:00N 21°37' W 144°47'1 1.2 1015.4 24.0
2017-Dec-02 00:00N 21°38' W 144°47'0 0.0 1015.9 24.1
2017-Dec-01 23:00N 21°38' W 144°47'0 0.0 1016.2 24.1
2017-Dec-01 22:00N 21°38' W 144°47'1 0.6 1017.3 24.0
2017-Dec-01 20:00N 21°39' W 144°47'0 0.0 1018.9 24.0
2017-Dec-01 19:00N 21°39' W 144°47'1 0.6 1019.4 24.0
2017-Dec-01 18:00N 21°40' W 144°47'1 0.3 1019.7 24.0
2017-Dec-01 16:00N 21°40' W 144°47'   1018.9 24.0
Track history (hours):
 
Tides and Currents Weather Stations Pressure Air Temp Water Temp Dewpoint Dewpoint Depression Visibility Wind Speed Wind Dir Waves Ship Positions

Drifting buoy 46770

Last reported at 2017-Dec-11 16:00 UTC. Time now 2017-Dec-13 18:50 UTC.
Position N 21°31' W 143°38'.

Barometer 1016.6 mb
Water temperature 24.8 ° C

Date/timePositionNaut miles runAvg speedWind from/ knotsBaromVisibWave heightAir tempDewpointWater temp
2017-Dec-11 16:00N 21°31' W 143°38'1 1.1 1016.6 24.8
2017-Dec-11 15:00N 21°31' W 143°39'0 0.0 1016.0 24.8
2017-Dec-11 14:00N 21°31' W 143°39'5 5.2 1015.9 24.8
2017-Dec-11 13:00N 21°30' W 143°44'0 0.0 1016.1 24.8
2017-Dec-11 11:00N 21°30' W 143°44'0 0.0 1016.6 24.8
2017-Dec-11 07:00N 21°30' W 143°44'1 1.1 1017.4 24.9
2017-Dec-11 06:00N 21°30' W 143°46'1 1.1 1016.9 25.0
2017-Dec-11 05:00N 21°30' W 143°47'1 0.6 1016.5 25.0
2017-Dec-11 04:00N 21°30' W 143°47'1 1.1 1015.9 25.0
2017-Dec-11 03:00N 21°30' W 143°49'2 0.9 1015.2 25.1
2017-Dec-11 01:00N 21°29' W 143°50'0 0.0 1014.7 25.3
2017-Dec-11 00:00N 21°29' W 143°50'3 3.0 1014.6 25.3
2017-Dec-10 23:00N 21°28' W 143°53'0 0.0 1014.9 25.2
2017-Dec-10 20:00N 21°28' W 143°53'2 1.6 1017.1 24.9
2017-Dec-10 19:00N 21°27' W 143°55'1 0.6 1017.6 24.8
2017-Dec-10 18:00N 21°28' W 143°55'2 2.1 1017.7 24.7
2017-Dec-10 17:00N 21°26' W 143°56'3 2.5 1017.1 24.7
2017-Dec-10 16:00N 21°25' W 143°59'0 0.0 1016.4 24.7
2017-Dec-10 15:00N 21°25' W 143°59'1 1.1 1015.5 24.7
2017-Dec-10 14:00N 21°25' W 144°00'0 0.0 1015.3 24.6
2017-Dec-10 13:00N 21°25' W 144°00'7 7.3 1015.1 24.7
2017-Dec-10 12:00N 21°22' W 144°07'1 0.2 1015.2 24.7
2017-Dec-10 07:00N 21°23' W 144°08'1 0.8 1016.4 24.7
2017-Dec-10 06:00N 21°22' W 144°08'1 0.6 1016.2 24.8
2017-Dec-10 05:00N 21°22' W 144°09'1 1.2 1015.8 24.8
2017-Dec-10 04:00N 21°21' W 144°09'1 0.6 1015.5 24.8
2017-Dec-10 03:00N 21°21' W 144°10'1 1.2 1014.2 24.8
2017-Dec-10 02:00N 21°20' W 144°10'0 0.0 1013.6 24.9
2017-Dec-10 01:00N 21°20' W 144°10'1 0.8 1013.4 25.0
2017-Dec-10 00:00N 21°19' W 144°10'0 0.0 1013.0 25.0
2017-Dec-09 23:00N 21°19' W 144°10'2 0.6 1013.2 24.9
2017-Dec-09 20:00N 21°17' W 144°10'0 0.0 1015.5 24.8
2017-Dec-09 19:00N 21°17' W 144°10'1 0.6 1016.0 24.8
2017-Dec-09 18:00N 21°17' W 144°10'0 0.0 1015.9 24.8
2017-Dec-09 17:00N 21°17' W 144°10'1 0.6 1015.5 24.7
2017-Dec-09 16:00N 21°16' W 144°10'1 0.6 1015.2 24.7
2017-Dec-09 15:00N 21°16' W 144°10'0 0.0 1015.0 24.7
2017-Dec-09 14:00N 21°16' W 144°10'1 0.8 1015.1 24.7
2017-Dec-09 13:00N 21°15' W 144°10'0 0.0 1015.2 24.7
2017-Dec-09 12:00N 21°15' W 144°10'0 0.0 1015.5 24.7
2017-Dec-09 11:00N 21°15' W 144°10'2 0.6 1016.1 24.8
2017-Dec-09 08:00N 21°13' W 144°10'1 1.2 1017.2 24.8
2017-Dec-09 07:00N 21°14' W 144°10'1 0.6 1017.6 24.8
2017-Dec-09 06:00N 21°14' W 144°10'1 0.6 1017.7 24.8
2017-Dec-09 05:00N 21°13' W 144°10'0 0.0 1017.9 24.8
2017-Dec-09 04:00N 21°13' W 144°10'0 0.0 1017.5 24.8
2017-Dec-09 03:00N 21°13' W 144°10'0 0.0 1016.8 24.8
2017-Dec-09 02:00N 21°13' W 144°10'1 0.8 1016.5 24.9
2017-Dec-09 01:00N 21°13' W 144°11'1 0.8 1016.3 24.9
2017-Dec-09 00:00N 21°12' W 144°11'0 0.0 1015.9 24.9
2017-Dec-08 23:00N 21°12' W 144°11'1 0.3 1015.9 24.9
2017-Dec-08 20:00N 21°11' W 144°11'1 0.8 1017.9 24.8
2017-Dec-08 19:00N 21°11' W 144°11'0 0.0 1018.0 24.8
2017-Dec-08 18:00N 21°11' W 144°11'0 0.0 1018.1 24.8
2017-Dec-08 17:00N 21°11' W 144°11'1 1.3 1017.8 24.8
2017-Dec-08 16:00N 21°10' W 144°12'0 0.0 1017.1 24.8
2017-Dec-08 15:00N 21°10' W 144°12'0 0.0 1016.9 24.8
2017-Dec-08 14:00N 21°10' W 144°12'0 0.0 1016.9 24.8
2017-Dec-08 13:00N 21°10' W 144°12'1 0.6 1016.6 24.8
2017-Dec-08 12:00N 21°10' W 144°13'0 0.0 1016.8 24.8
2017-Dec-08 11:00N 21°10' W 144°13'2 0.6 1017.2 24.8
2017-Dec-08 07:00N 21°07' W 144°13'0 0.0 1018.2 24.8
2017-Dec-08 06:00N 21°07' W 144°13'1 0.6 1018.0 24.8
2017-Dec-08 05:00N 21°07' W 144°13'1 0.6 1017.7 24.9
2017-Dec-08 04:00N 21°06' W 144°13'0 0.0 1017.1 24.9
2017-Dec-08 03:00N 21°06' W 144°13'0 0.0 1016.5 24.9
2017-Dec-08 02:00N 21°06' W 144°13'0 0.0 1016.3 25.0
2017-Dec-08 01:00N 21°06' W 144°13'1 0.4 1016.1 25.0
2017-Dec-07 23:00N 21°05' W 144°14'1 0.2 1016.2 25.0
2017-Dec-07 20:00N 21°05' W 144°14'1 0.8 1017.5 24.8
2017-Dec-07 19:00N 21°04' W 144°13'1 0.6 1017.4 24.8
2017-Dec-07 18:00N 21°04' W 144°14'1 0.8 1017.4 24.8
2017-Dec-07 17:00N 21°04' W 144°14'0 0.0 1017.5 24.8
2017-Dec-07 16:00N 21°04' W 144°14'1 0.8 1016.8 24.8
2017-Dec-07 15:00N 21°04' W 144°14'1 0.8 1016.4 24.8
2017-Dec-07 14:00N 21°04' W 144°14'1 0.6 1016.2 24.8
2017-Dec-07 13:00N 21°04' W 144°15'1 0.6 1015.7 24.8
2017-Dec-07 12:00N 21°04' W 144°16'1 0.3 1015.9 24.8
2017-Dec-07 08:00N 21°04' W 144°17'1 0.6 1017.1 24.8
2017-Dec-07 07:00N 21°03' W 144°17'1 0.6 1017.3 24.8
2017-Dec-07 06:00N 21°02' W 144°17'1 1.1 1017.4 24.8
2017-Dec-07 05:00N 21°02' W 144°18'1 0.6 1017.2 24.8
2017-Dec-07 04:00N 21°02' W 144°18'0 0.0 1016.6 24.8
2017-Dec-07 03:00N 21°02' W 144°18'1 0.6 1015.9 24.9
2017-Dec-07 02:00N 21°02' W 144°19'0 0.0 1014.8 24.9
2017-Dec-07 01:00N 21°02' W 144°19'1 0.6 1013.8 24.9
2017-Dec-07 00:00N 21°02' W 144°19'2 1.7 1014.1 24.9
2017-Dec-06 23:00N 21°02' W 144°20'1 0.3 1014.4 24.9
2017-Dec-06 19:00N 21°04' W 144°21'0 0.0 1015.5 24.7
2017-Dec-06 18:00N 21°04' W 144°21'1 0.8 1015.3 24.7
2017-Dec-06 17:00N 21°03' W 144°22'1 1.1 1014.6 24.7
2017-Dec-06 16:00N 21°03' W 144°23'1 0.6 1013.7 24.7
2017-Dec-06 14:00N 21°03' W 144°24'2 1.8 1012.3 24.6
2017-Dec-06 13:00N 21°04' W 144°26'0 0.0 1012.0 24.6
2017-Dec-06 12:00N 21°04' W 144°26'4 1.1 1012.1 24.6
2017-Dec-06 08:00N 21°02' W 144°30'1 1.1 1013.3 24.6
2017-Dec-06 07:00N 21°02' W 144°31'1 0.6 1013.5 24.6
2017-Dec-06 06:00N 21°01' W 144°31'1 0.8 1012.7 24.6
2017-Dec-06 05:00N 21°01' W 144°32'1 0.8 1012.2 24.6
2017-Dec-06 04:00N 21°00' W 144°32'1 1.1 1011.8 24.7
2017-Dec-06 03:00N 21°00' W 144°34'2 2.3 1010.9 24.7
2017-Dec-06 02:00N 20°59' W 144°36'0 0.0 1010.7 24.7
2017-Dec-06 01:00N 20°59' W 144°36'0 0.0 1010.1 24.8
2017-Dec-06 00:00N 20°59' W 144°36'0 0.0 1010.4 24.8
2017-Dec-05 23:00N 20°59' W 144°36'3 1.0 1010.7 24.8
2017-Dec-05 20:00N 20°59' W 144°39'1 1.1 1012.9 24.5
2017-Dec-05 19:00N 20°59' W 144°40'1 0.8 1013.0 24.5
2017-Dec-05 18:00N 20°58' W 144°41'0 0.0 1012.6 24.5
2017-Dec-05 17:00N 20°58' W 144°41'1 0.6 1012.4 24.5
2017-Dec-05 16:00N 20°58' W 144°41'1 1.1 1012.0 24.5
2017-Dec-05 15:00N 20°58' W 144°43'1 0.6 1011.3 24.5
2017-Dec-05 14:00N 20°58' W 144°43'0 0.0 1010.8 24.5
2017-Dec-05 13:00N 20°58' W 144°43'0 0.0 1010.9 24.5
2017-Dec-05 12:00N 20°58' W 144°43'2 0.4 1011.3 24.5
2017-Dec-05 07:00N 20°58' W 144°45'1 1.1 1012.8 24.6
2017-Dec-05 06:00N 20°58' W 144°46'0 0.0 1012.8 24.6
2017-Dec-05 05:00N 20°58' W 144°46'0 0.0 1012.2 24.6
2017-Dec-05 04:00N 20°58' W 144°46'1 0.6 1011.6 24.7
2017-Dec-05 03:00N 20°58' W 144°47'1 0.6 1011.2 24.8
2017-Dec-05 02:00N 20°58' W 144°47'1 0.6 1011.1 24.9
2017-Dec-05 01:00N 20°58' W 144°47'0 0.0 1011.0 24.9
2017-Dec-05 00:00N 20°58' W 144°47'0 0.0 1010.8 24.9
2017-Dec-04 23:00N 20°58' W 144°47'3 0.8 1011.3 24.8
2017-Dec-04 20:00N 20°59' W 144°50'0 0.0 1013.5 24.5
2017-Dec-04 19:00N 20°59' W 144°50'1 0.6 1013.4 24.4
2017-Dec-04 18:00N 20°59' W 144°50'1 0.8 1013.3 24.4
2017-Dec-04 17:00N 20°59' W 144°51'0 0.0 1012.9 24.4
2017-Dec-04 16:00N 20°59' W 144°51'0 0.0 1012.6 24.4
2017-Dec-04 15:00N 20°59' W 144°51'1 0.6 1012.5 24.4
2017-Dec-04 14:00N 20°59' W 144°51'1 1.1 1011.8 24.4
2017-Dec-04 13:00N 20°59' W 144°52'0 0.0 1012.0 24.4
2017-Dec-04 12:00N 20°59' W 144°52'2 0.6 1012.4 24.4
2017-Dec-04 08:00N 21°01' W 144°54'1 0.8 1014.0 24.4
2017-Dec-04 07:00N 21°02' W 144°53'1 1.3 1014.0 24.3
2017-Dec-04 06:00N 21°03' W 144°54'1 0.6 1013.8 24.4
2017-Dec-04 05:00N 21°03' W 144°53'1 1.3 1013.6 24.4
2017-Dec-04 04:00N 21°04' W 144°54'1 1.3 1013.0 24.4
2017-Dec-04 03:00N 21°05' W 144°55'0 0.0 1012.6 24.4
2017-Dec-04 02:00N 21°05' W 144°55'0 0.0 1012.5 24.4
2017-Dec-04 01:00N 21°05' W 144°55'0 0.0 1012.5 24.4
2017-Dec-04 00:00N 21°05' W 144°55'2 0.6 1012.5 24.4
2017-Dec-03 20:00N 21°08' W 144°55'2 1.9 1015.1 24.4
2017-Dec-03 19:00N 21°10' W 144°54'0 0.0 1015.6 24.4
2017-Dec-03 18:00N 21°10' W 144°54'2 1.9 1015.3 24.4
2017-Dec-03 17:00N 21°11' W 144°53'8 8.5 1014.8 24.3
2017-Dec-03 16:00N 21°20' W 144°52'0 0.0 1014.3 24.3
2017-Dec-03 15:00N 21°20' W 144°52'0 0.0 1013.6 24.3
2017-Dec-03 14:00N 21°20' W 144°52'0 0.0 1013.2 24.3
2017-Dec-03 13:00N 21°20' W 144°52'0 0.0 1013.0 24.2
2017-Dec-03 07:00N 21°20' W 144°52'2 1.9 1015.0 24.1
2017-Dec-03 06:00N 21°22' W 144°52'1 1.2 1014.4 24.1
2017-Dec-03 05:00N 21°23' W 144°52'1 0.8 1013.9 24.1
2017-Dec-03 04:00N 21°23' W 144°52'2 2.5 1013.6 24.1
2017-Dec-03 03:00N 21°26' W 144°52'0 0.0 1012.8 24.1
2017-Dec-03 02:00N 21°26' W 144°52'0 0.0 1012.7 24.1
2017-Dec-03 00:00N 21°26' W 144°52'3 0.8 1012.5 24.2
2017-Dec-02 20:00N 21°29' W 144°51'0 0.0 1015.6 24.1
2017-Dec-02 19:00N 21°29' W 144°51'1 0.8 1016.1 24.1
2017-Dec-02 18:00N 21°29' W 144°50'1 0.8 1016.0 24.0
2017-Dec-02 17:00N 21°30' W 144°51'0 0.0 1015.5 24.0
2017-Dec-02 16:00N 21°30' W 144°51'1 1.3 1015.1 24.0
2017-Dec-02 15:00N 21°31' W 144°50'0 0.0
2017-Dec-02 14:00N 21°31' W 144°50'2 1.8 1014.6 24.0
2017-Dec-02 13:00N 21°32' W 144°50'1 0.7 1014.7 24.0
2017-Dec-02 11:00N 21°34' W 144°49'0 0.0 1015.7 24.0
2017-Dec-02 08:00N 21°34' W 144°49'1 0.6 1017.5 23.8
2017-Dec-02 07:00N 21°34' W 144°49'1 1.3 1017.7 23.7
2017-Dec-02 06:00N 21°35' W 144°49'1 0.6 1017.5 23.8
2017-Dec-02 05:00N 21°36' W 144°49'1 1.3 1017.1 23.9
2017-Dec-02 04:00N 21°37' W 144°47'0 0.0 1016.5 23.9
2017-Dec-02 03:00N 21°37' W 144°47'0 0.0 1015.9 24.0
2017-Dec-02 02:00N 21°37' W 144°47'1 0.6 1015.7 24.0
2017-Dec-02 01:00N 21°37' W 144°47'1 1.2 1015.4 24.0
2017-Dec-02 00:00N 21°38' W 144°47'0 0.0 1015.9 24.1
2017-Dec-01 23:00N 21°38' W 144°47'0 0.0 1016.2 24.1
2017-Dec-01 22:00N 21°38' W 144°47'1 0.6 1017.3 24.0
2017-Dec-01 20:00N 21°39' W 144°47'0 0.0 1018.9 24.0
2017-Dec-01 19:00N 21°39' W 144°47'1 0.6 1019.4 24.0
2017-Dec-01 18:00N 21°40' W 144°47'1 0.3 1019.7 24.0
2017-Dec-01 16:00N 21°40' W 144°47'   1018.9 24.0

Dump ship's entire track history